createdAt,value
2018-10-17T00:00:18.184Z,24.63
2018-10-17T00:02:47.167Z,27.03
2018-10-17T00:05:16.073Z,25.03
2018-10-17T00:07:44.867Z,25.03
2018-10-17T00:10:15.007Z,25.60
2018-10-17T00:12:43.889Z,22.83
2018-10-17T00:15:12.700Z,27.20
2018-10-17T00:17:41.579Z,26.20
2018-10-17T00:20:11.031Z,25.47
2018-10-17T00:22:39.983Z,28.33
2018-10-17T00:25:09.040Z,29.37
2018-10-17T00:27:37.891Z,28.90
2018-10-17T00:30:10.168Z,29.27
2018-10-17T00:32:39.045Z,29.13
2018-10-17T00:35:08.798Z,29.60
2018-10-17T00:37:37.726Z,30.07
2018-10-17T00:40:07.160Z,29.77
2018-10-17T00:42:36.408Z,30.03
2018-10-17T00:45:06.231Z,31.00
2018-10-17T00:47:35.155Z,27.80
2018-10-17T00:50:04.711Z,28.13
2018-10-17T00:52:33.924Z,27.53
2018-10-17T00:55:02.788Z,26.83
2018-10-17T00:57:31.648Z,25.90
2018-10-17T01:00:00.462Z,26.67
2018-10-17T01:02:29.492Z,25.90
2018-10-17T01:04:58.387Z,24.33
2018-10-17T01:07:27.355Z,23.87
2018-10-17T01:09:56.233Z,24.37
2018-10-17T01:12:25.029Z,24.90
2018-10-17T01:14:53.916Z,24.70
2018-10-17T01:17:23.000Z,24.97
2018-10-17T01:19:51.837Z,25.20
2018-10-17T01:22:20.728Z,24.30
2018-10-17T01:24:49.646Z,24.60
2018-10-17T01:27:18.596Z,24.27
2018-10-17T01:29:47.478Z,23.80
2018-10-17T01:32:16.347Z,25.13
2018-10-17T01:34:45.231Z,25.67
2018-10-17T01:37:14.147Z,23.77
2018-10-17T01:39:43.180Z,23.53
2018-10-17T01:42:12.062Z,22.27
2018-10-17T01:44:40.920Z,21.40
2018-10-17T01:47:09.769Z,20.73
2018-10-17T01:49:38.649Z,20.40
2018-10-17T01:52:07.837Z,21.53
2018-10-17T01:54:36.691Z,20.67
2018-10-17T01:57:06.347Z,21.33
2018-10-17T01:59:35.384Z,20.40
2018-10-17T02:02:04.489Z,20.30
2018-10-17T02:04:33.401Z,20.47
2018-10-17T02:07:02.288Z,19.33
2018-10-17T02:09:31.103Z,18.80
2018-10-17T02:11:59.949Z,18.67
2018-10-17T02:14:28.753Z,19.10
2018-10-17T02:16:57.788Z,19.70
2018-10-17T02:19:26.618Z,19.87
2018-10-17T02:21:55.485Z,21.20
2018-10-17T02:24:24.288Z,23.63
2018-10-17T02:26:53.182Z,25.30
2018-10-17T02:29:22.103Z,22.77
2018-10-17T02:31:51.022Z,23.03
2018-10-17T02:34:19.832Z,22.13
2018-10-17T02:36:48.731Z,22.67
2018-10-17T02:39:17.579Z,20.07
2018-10-17T02:41:46.521Z,18.97
2018-10-17T02:44:15.378Z,18.07
2018-10-17T02:46:44.246Z,16.80
2018-10-17T02:49:13.150Z,18.57
2018-10-17T02:51:41.942Z,16.37
2018-10-17T02:54:10.906Z,17.20
2018-10-17T02:56:39.760Z,16.10
2018-10-17T02:59:08.657Z,16.17
2018-10-17T03:01:37.558Z,16.20
2018-10-17T03:04:06.397Z,17.17
2018-10-17T03:06:35.337Z,16.77
2018-10-17T03:09:06.283Z,17.77
2018-10-17T03:11:35.160Z,20.63
2018-10-17T03:14:04.004Z,21.13
2018-10-17T03:16:33.199Z,20.60
2018-10-17T03:19:02.229Z,20.40
2018-10-17T03:21:31.056Z,20.07
2018-10-17T03:23:59.940Z,21.37
2018-10-17T03:26:28.968Z,20.80
2018-10-17T03:28:57.864Z,20.13
2018-10-17T03:31:26.951Z,19.23
2018-10-17T03:33:55.741Z,19.67
2018-10-17T03:36:24.859Z,21.17
2018-10-17T03:38:53.724Z,20.73
2018-10-17T03:41:22.556Z,19.77
2018-10-17T03:43:51.495Z,20.47
2018-10-17T03:46:20.305Z,20.20
2018-10-17T03:48:49.166Z,21.37
2018-10-17T03:51:18.108Z,20.47
2018-10-17T03:53:46.984Z,19.67
2018-10-17T03:56:15.816Z,20.13
2018-10-17T03:58:44.731Z,19.43
2018-10-17T04:01:13.683Z,20.50
2018-10-17T04:03:42.412Z,21.53
2018-10-17T04:06:11.325Z,21.40
2018-10-17T04:08:40.239Z,21.63
2018-10-17T04:11:09.153Z,21.70
2018-10-17T04:13:38.161Z,20.30
2018-10-17T04:16:07.099Z,21.27
2018-10-17T04:18:35.901Z,20.60
2018-10-17T04:21:05.204Z,21.30
2018-10-17T04:23:34.024Z,20.57
2018-10-17T04:26:02.948Z,19.60
2018-10-17T04:28:31.765Z,20.70
2018-10-17T04:31:00.762Z,21.10
2018-10-17T04:33:29.624Z,20.83
2018-10-17T04:35:58.790Z,20.23
2018-10-17T04:38:27.705Z,20.00
2018-10-17T04:40:56.617Z,19.50
2018-10-17T04:43:25.462Z,20.00
2018-10-17T04:45:54.475Z,20.50
2018-10-17T04:48:23.704Z,20.73
2018-10-17T04:50:52.594Z,19.30
2018-10-17T04:53:21.447Z,19.70
2018-10-17T04:55:50.349Z,18.93
2018-10-17T04:58:19.194Z,19.83
2018-10-17T05:00:47.985Z,19.53
2018-10-17T05:03:16.914Z,18.53
2018-10-17T05:05:45.813Z,18.20
2018-10-17T05:08:14.697Z,19.17
2018-10-17T05:10:43.580Z,19.33
2018-10-17T05:13:12.655Z,19.03
2018-10-17T05:15:41.277Z,19.07
2018-10-17T05:18:10.179Z,19.40
2018-10-17T05:20:39.007Z,19.33
2018-10-17T05:23:08.046Z,18.10
2018-10-17T05:25:36.889Z,17.73
2018-10-17T05:28:05.976Z,19.60
2018-10-17T05:30:40.918Z,17.10
2018-10-17T05:33:09.809Z,16.23
2018-10-17T05:35:38.665Z,17.93
2018-10-17T05:38:07.647Z,15.67
2018-10-17T05:40:36.496Z,17.07
2018-10-17T05:43:05.456Z,17.27
2018-10-17T05:45:34.352Z,16.20
2018-10-17T05:48:09.228Z,16.27
2018-10-17T05:50:38.057Z,17.23
2018-10-17T05:53:07.014Z,17.30
2018-10-17T05:55:35.945Z,18.33
2018-10-17T05:58:05.250Z,17.57
2018-10-17T06:00:34.151Z,19.10
2018-10-17T06:03:03.190Z,18.63
2018-10-17T06:05:32.069Z,17.33
2018-10-17T06:08:00.968Z,17.90
2018-10-17T06:10:29.865Z,17.40
2018-10-17T06:12:58.691Z,18.20
2018-10-17T06:15:27.540Z,17.53
2018-10-17T06:17:56.344Z,17.73
2018-10-17T06:20:25.621Z,16.30
2018-10-17T06:22:54.508Z,17.97
2018-10-17T06:25:23.404Z,19.33
2018-10-17T06:27:52.239Z,19.47
2018-10-17T06:30:21.149Z,20.13
2018-10-17T06:32:50.084Z,19.13
2018-10-17T06:35:19.077Z,19.77
2018-10-17T06:37:47.804Z,18.80
2018-10-17T06:40:16.677Z,19.10
2018-10-17T06:42:45.499Z,18.80
2018-10-17T06:45:14.477Z,18.10
2018-10-17T06:47:43.320Z,18.57
2018-10-17T06:50:12.180Z,18.67
2018-10-17T06:52:41.040Z,18.40
2018-10-17T06:55:10.075Z,19.50
2018-10-17T06:57:39.268Z,19.03
2018-10-17T07:00:09.478Z,18.77
2018-10-17T07:02:38.339Z,18.40
2018-10-17T07:05:08.281Z,21.50
2018-10-17T07:07:37.131Z,20.53
2018-10-17T07:10:06.221Z,19.30
2018-10-17T07:12:35.064Z,21.27
2018-10-17T07:15:04.753Z,20.83
2018-10-17T07:17:33.668Z,22.87
2018-10-17T07:20:02.540Z,23.33
2018-10-17T07:22:31.939Z,22.40
2018-10-17T07:25:00.824Z,22.33
2018-10-17T07:27:29.685Z,22.03
2018-10-17T07:29:58.485Z,23.17
2018-10-17T07:32:27.452Z,21.77
2018-10-17T07:34:56.391Z,22.50
2018-10-17T07:37:25.244Z,22.17
2018-10-17T07:39:54.093Z,23.47
2018-10-17T07:42:23.133Z,22.23
2018-10-17T07:44:51.924Z,22.60
2018-10-17T07:47:20.946Z,21.20
2018-10-17T07:49:49.788Z,21.27
2018-10-17T07:52:18.659Z,21.77
2018-10-17T07:54:47.448Z,21.90
2018-10-17T07:57:16.291Z,21.37
2018-10-17T07:59:45.328Z,21.30
2018-10-17T08:02:14.123Z,21.87
2018-10-17T08:04:42.963Z,22.77
2018-10-17T08:07:11.959Z,20.40
2018-10-17T08:09:40.824Z,21.27
2018-10-17T08:12:10.050Z,21.57
2018-10-17T08:14:40.907Z,20.47
2018-10-17T08:17:10.463Z,20.47
2018-10-17T08:19:39.348Z,21.10
2018-10-17T08:22:08.160Z,19.53
2018-10-17T08:24:37.057Z,21.30
2018-10-17T08:27:06.153Z,21.83
2018-10-17T08:29:34.968Z,19.23
2018-10-17T08:32:03.760Z,20.57
2018-10-17T08:34:32.604Z,20.07
2018-10-17T08:37:01.845Z,20.63
2018-10-17T08:39:30.446Z,20.27
2018-10-17T08:41:59.329Z,20.43
2018-10-17T08:44:28.216Z,19.67
2018-10-17T08:46:57.378Z,20.30
2018-10-17T08:49:26.330Z,21.37
2018-10-17T08:51:55.525Z,19.43
2018-10-17T08:54:24.356Z,18.60
2018-10-17T08:56:53.194Z,18.90
2018-10-17T08:59:21.990Z,20.17
2018-10-17T09:01:50.963Z,18.63
2018-10-17T09:04:19.776Z,19.50
2018-10-17T09:06:48.725Z,20.93
2018-10-17T09:09:17.577Z,19.57
2018-10-17T09:11:46.471Z,21.33
2018-10-17T09:14:15.439Z,19.93
2018-10-17T09:16:44.315Z,20.67
2018-10-17T09:19:13.111Z,18.63
2018-10-17T09:21:42.162Z,19.47
2018-10-17T09:24:10.889Z,18.83
2018-10-17T09:26:39.780Z,18.23
2018-10-17T09:29:08.984Z,19.00
2018-10-17T09:31:37.899Z,17.73
2018-10-17T09:34:06.809Z,18.90
2018-10-17T09:36:35.683Z,17.57
2018-10-17T09:39:07.412Z,16.90
2018-10-17T09:41:36.314Z,15.17
2018-10-17T09:44:05.219Z,16.00
2018-10-17T09:46:34.100Z,15.40
2018-10-17T09:49:02.931Z,16.57
2018-10-17T09:51:32.205Z,15.67
2018-10-17T09:54:01.046Z,14.63
2018-10-17T09:56:29.948Z,15.27
2018-10-17T09:58:58.794Z,13.53
2018-10-17T10:01:34.304Z,13.40
2018-10-17T10:04:03.290Z,12.03
2018-10-17T10:06:32.148Z,12.20
2018-10-17T10:09:01.043Z,12.87
2018-10-17T10:11:29.833Z,12.40
2018-10-17T10:13:59.148Z,12.37
2018-10-17T10:16:28.171Z,12.50
2018-10-17T10:18:57.060Z,12.47
2018-10-17T10:21:26.264Z,12.00
2018-10-17T10:23:55.150Z,11.03
2018-10-17T10:26:23.917Z,11.67
2018-10-17T10:28:52.873Z,11.40
2018-10-17T10:31:21.873Z,13.10
2018-10-17T10:33:50.801Z,11.90
2018-10-17T10:36:19.763Z,12.07
2018-10-17T10:38:48.664Z,11.17
2018-10-17T10:41:17.872Z,11.03
2018-10-17T10:43:46.753Z,11.07
2018-10-17T10:46:15.634Z,9.50
2018-10-17T10:48:44.540Z,9.40
2018-10-17T10:51:13.482Z,9.40
2018-10-17T10:53:42.345Z,9.87
2018-10-17T10:56:11.298Z,9.90
2018-10-17T10:58:40.184Z,9.63
2018-10-17T11:01:09.374Z,9.03
2018-10-17T11:03:38.201Z,9.57
2018-10-17T11:06:07.180Z,9.83
2018-10-17T11:08:36.031Z,8.97
2018-10-17T11:11:05.422Z,9.07
2018-10-17T11:13:34.328Z,8.83
2018-10-17T11:16:03.182Z,8.33
2018-10-17T11:18:32.110Z,8.70
2018-10-17T11:21:01.040Z,7.53
2018-10-17T11:23:29.906Z,8.07
2018-10-17T11:25:58.816Z,8.57
2018-10-17T11:28:27.746Z,7.73
2018-10-17T11:30:56.664Z,7.30
2018-10-17T11:33:25.472Z,7.97
2018-10-17T11:35:54.488Z,7.13
2018-10-17T11:38:23.306Z,8.43
2018-10-17T11:40:52.231Z,8.30
2018-10-17T11:43:21.144Z,7.87
2018-10-17T11:45:50.025Z,6.90
2018-10-17T11:48:18.827Z,7.50
2018-10-17T11:50:47.732Z,7.73
2018-10-17T11:53:16.632Z,7.63
2018-10-17T11:55:45.511Z,7.70
2018-10-17T11:58:14.359Z,8.10
2018-10-17T12:00:43.248Z,8.60
2018-10-17T12:03:12.197Z,8.97
2018-10-17T12:05:41.279Z,8.27
2018-10-17T12:08:10.010Z,9.20
2018-10-17T12:10:38.840Z,8.33
2018-10-17T12:13:07.702Z,9.03
2018-10-17T12:15:41.268Z,9.00
2018-10-17T12:18:10.738Z,8.43
2018-10-17T12:20:39.637Z,9.27
2018-10-17T12:23:08.464Z,8.60
2018-10-17T12:25:37.301Z,8.77
2018-10-17T12:28:06.623Z,8.43
2018-10-17T12:30:35.408Z,9.03
2018-10-17T12:33:04.584Z,8.37
2018-10-17T12:35:33.388Z,9.03
2018-10-17T12:38:02.314Z,9.00
2018-10-17T12:40:31.336Z,8.47
2018-10-17T12:43:00.122Z,8.30
2018-10-17T12:45:29.080Z,8.30
2018-10-17T12:47:57.974Z,9.33
2018-10-17T12:50:26.818Z,9.00
2018-10-17T12:52:55.878Z,8.23
2018-10-17T12:55:24.593Z,9.50
2018-10-17T12:57:53.428Z,8.70
2018-10-17T13:00:24.072Z,8.23
2018-10-17T13:02:52.918Z,8.60
2018-10-17T13:05:21.734Z,7.77
2018-10-17T13:07:50.618Z,7.77
2018-10-17T13:10:19.585Z,7.03
2018-10-17T13:12:48.366Z,8.23
2018-10-17T13:15:17.276Z,7.20
2018-10-17T13:17:46.247Z,7.57
2018-10-17T13:20:15.234Z,5.77
2018-10-17T13:22:44.748Z,6.93
2018-10-17T13:25:13.731Z,7.50
2018-10-17T13:27:42.563Z,8.30
2018-10-17T13:30:11.505Z,9.73
2018-10-17T13:32:40.347Z,11.27
2018-10-17T13:35:09.372Z,9.90
2018-10-17T13:37:38.149Z,7.80
2018-10-17T13:40:07.116Z,7.07
2018-10-17T13:42:36.000Z,6.90
2018-10-17T13:45:10.853Z,6.97
2018-10-17T13:47:39.753Z,6.50
2018-10-17T13:50:08.785Z,6.67
2018-10-17T13:52:37.593Z,6.53
2018-10-17T13:55:07.256Z,6.43
2018-10-17T13:57:36.514Z,6.73
2018-10-17T14:00:07.012Z,5.90
2018-10-17T14:02:35.841Z,6.40
2018-10-17T14:05:05.634Z,6.40
2018-10-17T14:07:34.514Z,6.10
2018-10-17T14:10:03.988Z,6.20
2018-10-17T14:12:33.151Z,6.07
2018-10-17T14:15:02.025Z,6.33
2018-10-17T14:17:30.896Z,6.47
2018-10-17T14:19:59.740Z,6.67
2018-10-17T14:22:29.023Z,6.97
2018-10-17T14:24:58.028Z,5.93
2018-10-17T14:27:26.984Z,5.90
2018-10-17T14:29:55.853Z,6.17
2018-10-17T14:32:24.714Z,6.20
2018-10-17T14:34:53.596Z,6.60
2018-10-17T14:37:22.771Z,6.27
2018-10-17T14:39:51.643Z,5.90
2018-10-17T14:42:20.602Z,6.90
2018-10-17T14:44:50.105Z,7.20
2018-10-17T14:47:18.983Z,7.57
2018-10-17T14:49:47.860Z,8.00
2018-10-17T14:52:16.713Z,7.77
2018-10-17T14:54:45.895Z,7.87
2018-10-17T14:57:14.827Z,7.80
2018-10-17T14:59:43.577Z,7.90
2018-10-17T15:02:12.465Z,7.73
2018-10-17T15:04:41.324Z,9.17
2018-10-17T15:07:10.130Z,8.60
2018-10-17T15:09:38.968Z,8.97
2018-10-17T15:12:07.946Z,10.20
2018-10-17T15:14:36.774Z,9.97
2018-10-17T15:17:05.819Z,10.40
2018-10-17T15:19:34.753Z,10.00
2018-10-17T15:22:03.520Z,10.97
2018-10-17T15:24:32.481Z,10.53
2018-10-17T15:27:01.375Z,10.97
2018-10-17T15:29:30.161Z,11.20
2018-10-17T15:31:59.009Z,10.77
2018-10-17T15:34:27.838Z,11.40
2018-10-17T15:36:56.701Z,10.97
2018-10-17T15:39:25.653Z,10.70
2018-10-17T15:41:54.810Z,18.73
2018-10-17T15:44:23.720Z,22.80
2018-10-17T15:46:52.512Z,25.93
2018-10-17T15:49:21.410Z,27.83
2018-10-17T15:51:50.245Z,30.23
2018-10-17T15:54:19.123Z,30.30
2018-10-17T15:56:47.941Z,32.03
2018-10-17T15:59:16.714Z,32.97
2018-10-17T16:01:45.574Z,33.53
2018-10-17T16:04:14.774Z,35.93
2018-10-17T16:06:43.752Z,35.33
2018-10-17T16:09:13.067Z,37.00
2018-10-17T16:11:42.102Z,37.33
2018-10-17T16:14:10.855Z,37.93
2018-10-17T16:16:39.741Z,40.07
2018-10-17T16:19:08.593Z,40.60
2018-10-17T16:21:37.456Z,42.17
2018-10-17T16:24:06.469Z,42.80
2018-10-17T16:26:35.344Z,45.67
2018-10-17T16:29:04.229Z,44.30
2018-10-17T16:31:33.032Z,41.83
2018-10-17T16:34:01.881Z,44.23
2018-10-17T16:36:30.707Z,42.97
2018-10-17T16:38:59.543Z,41.67
2018-10-17T16:41:28.623Z,44.30
2018-10-17T16:43:57.423Z,46.93
2018-10-17T16:46:26.270Z,44.17
2018-10-17T16:48:55.089Z,45.13
2018-10-17T16:51:24.039Z,44.87
2018-10-17T16:53:52.941Z,44.97
2018-10-17T16:56:21.853Z,42.33
2018-10-17T16:58:50.681Z,44.63
2018-10-17T17:01:19.827Z,43.20
2018-10-17T17:03:48.758Z,43.20
2018-10-17T17:06:18.023Z,41.67
2018-10-17T17:08:46.908Z,39.03
2018-10-17T17:11:15.692Z,41.10
2018-10-17T17:13:44.597Z,38.47
2018-10-17T17:16:13.479Z,38.07
2018-10-17T17:18:42.373Z,37.10
2018-10-17T17:21:11.261Z,35.07
2018-10-17T17:23:40.012Z,34.37
2018-10-17T17:26:08.883Z,31.20
2018-10-17T17:28:37.735Z,33.73
2018-10-17T17:31:06.709Z,32.03
2018-10-17T17:33:35.608Z,31.43
2018-10-17T17:36:04.657Z,33.83
2018-10-17T17:38:33.843Z,32.30
2018-10-17T17:41:02.656Z,30.90
2018-10-17T17:43:31.953Z,32.63
2018-10-17T17:46:01.428Z,28.60
2018-10-17T17:48:30.293Z,29.43
2018-10-17T17:50:59.150Z,29.97
2018-10-17T17:53:28.351Z,30.27
2018-10-17T17:55:57.279Z,29.77
2018-10-17T17:58:26.928Z,29.43
2018-10-17T18:00:56.047Z,28.97
2018-10-17T18:03:24.911Z,29.77
2018-10-17T18:05:53.815Z,28.33
2018-10-17T18:08:24.038Z,29.47
2018-10-17T18:10:53.436Z,29.03
2018-10-17T18:13:22.256Z,28.83
2018-10-17T18:15:51.228Z,28.10
2018-10-17T18:18:19.992Z,28.83
2018-10-17T18:20:49.095Z,27.30
2018-10-17T18:23:17.843Z,28.53
2018-10-17T18:25:47.341Z,28.73
2018-10-17T18:28:16.297Z,27.00
2018-10-17T18:30:45.033Z,25.50
2018-10-17T18:33:14.249Z,27.40
2018-10-17T18:35:43.106Z,26.80
2018-10-17T18:38:12.079Z,27.23
2018-10-17T18:40:41.125Z,27.47
2018-10-17T18:43:09.905Z,26.33
2018-10-17T18:45:39.783Z,28.87
2018-10-17T18:48:08.698Z,28.37
2018-10-17T18:50:37.525Z,28.63
2018-10-17T18:53:06.374Z,28.23
2018-10-17T18:55:35.177Z,27.87
2018-10-17T18:58:04.192Z,29.60
2018-10-17T19:00:33.335Z,28.50
2018-10-17T19:03:02.210Z,28.10
2018-10-17T19:05:30.971Z,28.87
2018-10-17T19:07:59.857Z,28.90
2018-10-17T19:10:28.732Z,28.20
2018-10-17T19:12:57.630Z,30.53
2018-10-17T19:15:26.417Z,29.03
2018-10-17T19:17:55.546Z,29.27
2018-10-17T19:20:24.852Z,30.47
2018-10-17T19:22:54.792Z,30.97
2018-10-17T19:25:23.961Z,32.03
2018-10-17T19:27:52.881Z,33.70
2018-10-17T19:30:21.810Z,33.43
2018-10-17T19:32:50.640Z,32.07
2018-10-17T19:35:19.499Z,33.60
2018-10-17T19:37:54.407Z,32.23
2018-10-17T19:40:23.251Z,34.50
2018-10-17T19:42:52.150Z,32.67
2018-10-17T19:45:26.309Z,33.77
2018-10-17T19:48:01.237Z,33.03
2018-10-17T19:50:36.001Z,34.93
2018-10-17T19:53:11.296Z,32.77
2018-10-17T19:55:46.222Z,34.73
2018-10-17T19:58:21.082Z,34.23
2018-10-17T20:00:49.921Z,35.03
2018-10-17T20:03:18.728Z,35.33
2018-10-17T20:05:47.624Z,35.63
2018-10-17T20:08:16.432Z,34.87
2018-10-17T20:10:45.278Z,35.67
2018-10-17T20:13:14.044Z,34.40
2018-10-17T20:15:42.970Z,34.97
2018-10-17T20:18:11.851Z,35.70
2018-10-17T20:20:40.672Z,32.80
2018-10-17T20:23:09.511Z,35.40
2018-10-17T20:25:38.382Z,36.00
2018-10-17T20:28:07.192Z,34.00
2018-10-17T20:30:36.267Z,34.67
2018-10-17T20:33:05.190Z,33.87
2018-10-17T20:35:34.058Z,34.23
2018-10-17T20:38:02.857Z,33.00
2018-10-17T20:40:31.783Z,35.07
2018-10-17T20:43:00.698Z,36.03
2018-10-17T20:45:29.648Z,36.83
2018-10-17T20:47:58.469Z,34.90
2018-10-17T20:50:27.305Z,32.90
2018-10-17T20:52:56.202Z,35.20
2018-10-17T20:55:25.087Z,33.57
2018-10-17T20:57:53.872Z,33.97
2018-10-17T21:00:22.730Z,34.80
2018-10-17T21:02:51.534Z,33.67
2018-10-17T21:05:20.346Z,34.30
2018-10-17T21:07:49.404Z,32.63
2018-10-17T21:10:18.189Z,34.33
2018-10-17T21:12:47.060Z,32.90
2018-10-17T21:15:15.841Z,31.70
2018-10-17T21:17:44.765Z,34.40
2018-10-17T21:20:13.662Z,34.83
2018-10-17T21:22:42.725Z,37.60
2018-10-17T21:25:11.557Z,37.00
2018-10-17T21:27:40.433Z,38.63
2018-10-17T21:30:10.075Z,36.60
2018-10-17T21:32:39.025Z,36.80
2018-10-17T21:35:07.971Z,37.23
2018-10-17T21:37:37.140Z,38.03
2018-10-17T21:40:06.567Z,35.60
2018-10-17T21:42:36.316Z,36.53
2018-10-17T21:45:11.666Z,34.90
2018-10-17T21:47:40.848Z,33.03
2018-10-17T21:50:09.913Z,32.40
2018-10-17T21:52:38.894Z,30.17
2018-10-17T21:55:07.877Z,30.83
2018-10-17T21:57:36.756Z,29.20
2018-10-17T22:00:08.557Z,28.30
2018-10-17T22:02:37.518Z,28.30
2018-10-17T22:05:08.543Z,28.47
2018-10-17T22:07:37.493Z,27.73
2018-10-17T22:10:07.216Z,26.27
2018-10-17T22:12:36.192Z,26.80
2018-10-17T22:15:06.968Z,29.70
2018-10-17T22:17:35.798Z,28.00
2018-10-17T22:20:05.534Z,27.33
2018-10-17T22:22:34.309Z,27.37
2018-10-17T22:25:03.261Z,25.03
2018-10-17T22:27:32.121Z,26.13
2018-10-17T22:30:01.035Z,27.47
2018-10-17T22:32:29.912Z,25.97
2018-10-17T22:34:58.825Z,27.23
2018-10-17T22:37:28.048Z,28.33
2018-10-17T22:39:57.276Z,29.40
2018-10-17T22:42:26.078Z,27.23
2018-10-17T22:44:54.989Z,26.77
2018-10-17T22:47:23.828Z,26.50
2018-10-17T22:49:52.678Z,27.67
2018-10-17T22:52:21.525Z,28.57
2018-10-17T22:54:50.399Z,25.73
2018-10-17T22:57:19.313Z,25.80
2018-10-17T22:59:48.189Z,26.73
2018-10-17T23:02:17.019Z,26.63
2018-10-17T23:04:45.854Z,25.87
2018-10-17T23:07:14.742Z,23.50
2018-10-17T23:09:43.611Z,29.00
2018-10-17T23:12:12.531Z,24.53
2018-10-17T23:14:41.353Z,27.40
2018-10-17T23:17:10.235Z,27.03
2018-10-17T23:19:39.050Z,26.00
2018-10-17T23:22:07.982Z,25.77
2018-10-17T23:24:37.050Z,26.20
2018-10-17T23:27:05.955Z,27.63
2018-10-17T23:29:34.800Z,31.37
2018-10-17T23:32:03.728Z,33.03
2018-10-17T23:34:32.624Z,30.27
2018-10-17T23:37:01.490Z,29.87
2018-10-17T23:39:30.269Z,30.07
2018-10-17T23:41:59.207Z,30.83
2018-10-17T23:44:28.062Z,30.73
2018-10-17T23:46:57.070Z,26.93
2018-10-17T23:49:25.891Z,28.70
2018-10-17T23:51:54.738Z,28.23
2018-10-17T23:54:23.547Z,34.10
2018-10-17T23:56:52.451Z,28.53
2018-10-17T23:59:21.406Z,31.17
